Terminal Aerodrome Forecast
Issued by NWS Denver/Boulder, CO

Home | Current Version | Previous Version | Text Only | Print | Product List | Glossary On
Versions: 1 2 3 4 5 6 7 8 9 10 11 12 13 14 15 16 17 18 19 20 21 22 23 24 25 26 27 28 29 30 31 32 33 34
000
FTUS45 KBOU 231131
TAFDEN
TAF
KDEN 231131Z 2312/2418 20012KT P6SM BKN160
     FM231500 25006KT P6SM BKN160
     FM231800 04008KT P6SM FEW090 SCT150 BKN200
     FM232200 08011KT P6SM SCT090 BKN140
      TEMPO 2322/2401 VRB20G30KT BKN090
     FM240200 13008KT P6SM FEW090 SCT140 BKN200
     FM240500 21010KT P6SM FEW140 SCT200=

USA.gov is the U.S. government's official web portal to all federal, state and local government web resources and services.